createdAt,value
2019-06-26T00:01:47.264Z,11.67
2019-06-26T00:04:17.207Z,11.83
2019-06-26T00:06:46.904Z,12.00
2019-06-26T00:09:16.550Z,12.23
2019-06-26T00:11:46.310Z,12.47
2019-06-26T00:14:17.013Z,12.83
2019-06-26T00:16:46.669Z,13.03
2019-06-26T00:19:16.662Z,12.13
2019-06-26T00:21:46.304Z,13.23
2019-06-26T00:24:16.327Z,13.67
2019-06-26T00:26:46.158Z,13.37
2019-06-26T00:29:15.891Z,14.80
2019-06-26T00:31:45.531Z,13.73
2019-06-26T00:34:16.425Z,15.37
2019-06-26T00:36:46.068Z,15.73
2019-06-26T00:39:16.152Z,14.73
2019-06-26T00:41:45.819Z,15.03
2019-06-26T00:44:15.857Z,14.83
2019-06-26T00:46:45.629Z,15.20
2019-06-26T00:49:15.695Z,15.27
2019-06-26T00:51:45.474Z,15.40
2019-06-26T00:54:15.108Z,15.17
2019-06-26T00:56:44.773Z,15.23
2019-06-26T00:59:14.630Z,19.20
2019-06-26T01:01:44.284Z,15.33
2019-06-26T01:04:18.099Z,15.50
2019-06-26T01:06:48.282Z,18.80
2019-06-26T01:09:18.091Z,17.53
2019-06-26T01:11:48.066Z,16.03
2019-06-26T01:14:18.207Z,16.83
2019-06-26T01:16:49.336Z,17.33
2019-06-26T01:19:18.984Z,17.07
2019-06-26T01:21:49.183Z,16.17
2019-06-26T01:24:19.234Z,16.23
2019-06-26T01:26:49.445Z,17.00
2019-06-26T01:29:19.144Z,17.10
2019-06-26T01:31:48.991Z,17.03
2019-06-26T01:34:18.692Z,16.17
2019-06-26T01:36:48.432Z,16.57
2019-06-26T01:39:18.086Z,17.60
2019-06-26T01:41:47.827Z,16.63
2019-06-26T01:44:17.472Z,17.63
2019-06-26T01:46:47.272Z,16.60
2019-06-26T01:49:17.029Z,19.87
2019-06-26T01:51:46.730Z,16.67
2019-06-26T01:54:17.467Z,19.07
2019-06-26T01:56:47.236Z,17.23
2019-06-26T01:59:17.011Z,17.63
2019-06-26T02:01:46.918Z,18.03
2019-06-26T02:04:16.643Z,16.73
2019-06-26T02:06:46.305Z,18.83
2019-06-26T02:09:16.368Z,16.17
2019-06-26T02:11:46.104Z,17.93
2019-06-26T02:14:29.890Z,18.97
2019-06-26T02:16:47.662Z,17.33
2019-06-26T02:19:18.604Z,18.40
2019-06-26T02:21:49.791Z,18.23
2019-06-26T02:24:19.440Z,16.40
2019-06-26T02:26:49.620Z,16.90
2019-06-26T02:29:19.346Z,17.80
2019-06-26T02:31:49.195Z,17.47
2019-06-26T02:34:19.355Z,17.90
2019-06-26T02:36:49.221Z,17.10
2019-06-26T02:39:18.883Z,18.00
2019-06-26T02:41:48.615Z,17.27
2019-06-26T02:44:18.277Z,18.47
2019-06-26T02:46:47.959Z,17.70
2019-06-26T02:49:17.951Z,16.70
2019-06-26T02:51:47.589Z,18.23
2019-06-26T02:54:17.389Z,17.33
2019-06-26T02:56:47.016Z,17.60
2019-06-26T02:59:16.691Z,18.07
2019-06-26T03:01:46.389Z,18.07
2019-06-26T03:04:16.175Z,18.37
2019-06-26T03:06:46.080Z,18.17
2019-06-26T03:09:15.796Z,17.80
2019-06-26T03:11:45.687Z,17.23
2019-06-26T03:14:15.335Z,17.53
2019-06-26T03:16:45.231Z,17.90
2019-06-26T03:19:14.888Z,18.60
2019-06-26T03:21:44.519Z,17.93
2019-06-26T03:24:14.311Z,18.10
2019-06-26T03:26:43.983Z,18.10
2019-06-26T03:29:13.708Z,17.87
2019-06-26T03:31:43.469Z,18.27
2019-06-26T03:34:13.232Z,18.30
2019-06-26T03:36:42.871Z,18.30
2019-06-26T03:39:12.520Z,19.30
2019-06-26T03:41:42.147Z,18.70
2019-06-26T03:44:11.822Z,18.50
2019-06-26T03:46:41.724Z,18.83
2019-06-26T03:49:12.089Z,18.93
2019-06-26T03:51:41.739Z,19.67
2019-06-26T03:54:11.504Z,17.80
2019-06-26T03:56:42.111Z,19.23
2019-06-26T03:59:11.787Z,19.20
2019-06-26T04:01:41.425Z,18.93
2019-06-26T04:04:11.093Z,19.60
2019-06-26T04:06:41.062Z,20.00
2019-06-26T04:09:11.024Z,20.70
2019-06-26T04:11:40.954Z,20.00
2019-06-26T04:14:10.590Z,20.00
2019-06-26T04:16:40.329Z,21.03
2019-06-26T04:19:10.159Z,20.63
2019-06-26T04:21:40.144Z,23.97
2019-06-26T04:24:09.866Z,20.20
2019-06-26T04:26:39.835Z,19.63
2019-06-26T04:29:09.545Z,18.80
2019-06-26T04:31:39.291Z,19.57
2019-06-26T04:34:09.029Z,14.23
2019-06-26T04:36:38.686Z,15.07
2019-06-26T04:39:08.426Z,16.77
2019-06-26T04:41:38.062Z,17.97
2019-06-26T04:44:07.800Z,17.43
2019-06-26T04:46:37.788Z,17.93
2019-06-26T04:49:07.762Z,20.17
2019-06-26T04:51:37.481Z,19.60
2019-06-26T04:54:07.244Z,18.73
2019-06-26T04:56:36.979Z,19.03
2019-06-26T04:59:06.799Z,18.10
2019-06-26T05:01:36.608Z,18.20
2019-06-26T05:04:06.576Z,17.80
2019-06-26T05:06:36.320Z,18.50
2019-06-26T05:09:07.481Z,17.13
2019-06-26T05:11:37.146Z,17.90
2019-06-26T05:14:06.860Z,18.67
2019-06-26T05:16:36.754Z,16.63
2019-06-26T05:19:06.735Z,16.53
2019-06-26T05:21:36.955Z,17.57
2019-06-26T05:24:07.733Z,16.87
2019-06-26T05:26:37.651Z,17.67
2019-06-26T05:29:07.488Z,16.10
2019-06-26T05:31:37.531Z,16.47
2019-06-26T05:34:10.777Z,15.27
2019-06-26T05:36:38.659Z,14.97
2019-06-26T05:39:08.504Z,15.00
2019-06-26T05:41:38.579Z,14.70
2019-06-26T05:44:08.325Z,15.70
2019-06-26T05:46:38.231Z,15.77
2019-06-26T05:49:11.115Z,15.90
2019-06-26T05:51:41.078Z,18.00
2019-06-26T05:54:11.015Z,16.73
2019-06-26T05:56:41.090Z,16.63
2019-06-26T05:59:10.818Z,15.97
2019-06-26T06:01:40.518Z,16.63
2019-06-26T06:04:10.192Z,17.07
2019-06-26T06:06:42.166Z,16.77
2019-06-26T06:09:11.317Z,16.47
2019-06-26T06:11:41.335Z,16.13
2019-06-26T06:14:11.384Z,17.80
2019-06-26T06:16:47.485Z,15.37
2019-06-26T06:19:12.751Z,15.80
2019-06-26T06:21:42.383Z,15.50
2019-06-26T06:24:12.339Z,15.50
2019-06-26T06:26:42.015Z,17.10
2019-06-26T06:29:12.069Z,15.97
2019-06-26T06:31:41.688Z,15.63
2019-06-26T06:34:11.447Z,15.70
2019-06-26T06:36:41.067Z,16.63
2019-06-26T06:39:11.279Z,17.07
2019-06-26T06:41:43.365Z,17.03
2019-06-26T06:44:13.018Z,16.70
2019-06-26T06:46:42.741Z,16.77
2019-06-26T06:49:12.634Z,17.27
2019-06-26T06:51:42.438Z,16.20
2019-06-26T06:54:12.148Z,16.57
2019-06-26T06:56:41.790Z,17.33
2019-06-26T06:59:11.809Z,16.70
2019-06-26T07:01:41.434Z,16.93
2019-06-26T07:04:11.311Z,16.37
2019-06-26T07:06:41.543Z,16.07
2019-06-26T07:09:11.531Z,16.07
2019-06-26T07:11:41.160Z,16.23
2019-06-26T07:14:10.795Z,16.17
2019-06-26T07:16:40.438Z,15.63
2019-06-26T07:19:10.694Z,15.73
2019-06-26T07:21:40.611Z,15.30
2019-06-26T07:24:10.249Z,15.47
2019-06-26T07:26:39.964Z,15.40
2019-06-26T07:29:09.623Z,14.50
2019-06-26T07:31:39.260Z,14.90
2019-06-26T07:34:08.951Z,15.03
2019-06-26T07:36:38.599Z,15.10
2019-06-26T07:39:08.331Z,15.47
2019-06-26T07:41:37.958Z,15.77
2019-06-26T07:44:07.722Z,15.77
2019-06-26T07:46:37.788Z,16.03
2019-06-26T07:49:07.430Z,14.77
2019-06-26T07:51:37.077Z,15.37
2019-06-26T07:54:07.517Z,15.20
2019-06-26T07:56:37.161Z,14.23
2019-06-26T07:59:06.830Z,13.90
2019-06-26T08:01:36.539Z,13.73
2019-06-26T08:04:06.184Z,12.60
2019-06-26T08:06:36.352Z,12.30
2019-06-26T08:09:06.961Z,16.57
2019-06-26T08:11:36.822Z,10.23
2019-06-26T08:14:06.637Z,11.13
2019-06-26T08:16:36.388Z,10.97
2019-06-26T08:19:06.071Z,11.40
2019-06-26T08:21:35.788Z,9.87
2019-06-26T08:24:05.651Z,10.70
2019-06-26T08:26:35.303Z,10.90
2019-06-26T08:29:05.332Z,10.37
2019-06-26T08:31:34.971Z,9.83
2019-06-26T08:34:04.747Z,10.83
2019-06-26T08:36:34.603Z,8.43
2019-06-26T08:39:05.788Z,8.40
2019-06-26T08:41:36.070Z,9.33
2019-06-26T08:44:07.028Z,8.10
2019-06-26T08:46:36.937Z,8.33
2019-06-26T08:49:06.586Z,8.47
2019-06-26T08:51:39.115Z,8.70
2019-06-26T08:54:09.155Z,8.47
2019-06-26T08:56:39.022Z,8.40
2019-06-26T08:59:09.738Z,11.67
2019-06-26T09:01:39.437Z,8.30
2019-06-26T09:04:09.203Z,8.83
2019-06-26T09:06:39.142Z,8.67
2019-06-26T09:09:09.034Z,8.97
2019-06-26T09:11:38.723Z,9.17
2019-06-26T09:14:08.432Z,9.10
2019-06-26T09:16:39.118Z,9.13
2019-06-26T09:19:08.851Z,8.93
2019-06-26T09:21:38.532Z,8.10
2019-06-26T09:24:08.756Z,7.70
2019-06-26T09:26:38.381Z,7.30
2019-06-26T09:29:08.416Z,6.97
2019-06-26T09:31:38.171Z,9.27
2019-06-26T09:34:07.893Z,8.30
2019-06-26T09:36:37.515Z,7.00
2019-06-26T09:39:08.153Z,8.77
2019-06-26T09:41:37.836Z,7.13
2019-06-26T09:44:09.372Z,7.93
2019-06-26T09:46:39.004Z,6.67
2019-06-26T09:49:08.658Z,7.50
2019-06-26T09:51:38.312Z,9.43
2019-06-26T09:54:08.203Z,7.20
2019-06-26T09:56:37.870Z,7.30
2019-06-26T09:59:07.504Z,6.70
2019-06-26T10:01:37.580Z,7.50
2019-06-26T10:04:07.515Z,7.23
2019-06-26T10:06:37.152Z,9.43
2019-06-26T10:09:07.869Z,7.60
2019-06-26T10:11:37.566Z,8.13
2019-06-26T10:14:07.329Z,8.80
2019-06-26T10:16:37.228Z,11.10
2019-06-26T10:19:10.668Z,9.00
2019-06-26T10:21:38.575Z,10.90
2019-06-26T10:24:08.392Z,11.17
2019-06-26T10:26:39.384Z,11.73
2019-06-26T10:29:10.081Z,10.27
2019-06-26T10:31:39.732Z,12.13
2019-06-26T10:34:10.326Z,12.77
2019-06-26T10:36:41.187Z,11.60
2019-06-26T10:39:10.971Z,14.00
2019-06-26T10:41:40.668Z,12.83
2019-06-26T10:44:10.286Z,11.97
2019-06-26T10:46:40.220Z,10.97
2019-06-26T10:49:25.896Z,13.10
2019-06-26T10:51:41.715Z,12.67
2019-06-26T10:54:11.532Z,12.10
2019-06-26T10:56:41.232Z,13.67
2019-06-26T10:59:10.931Z,10.97
2019-06-26T11:01:40.645Z,15.67
2019-06-26T11:04:10.647Z,10.03
2019-06-26T11:06:40.730Z,11.00
2019-06-26T11:09:10.362Z,8.57
2019-06-26T11:11:40.257Z,9.67
2019-06-26T11:14:10.156Z,10.70
2019-06-26T11:16:39.792Z,11.10
2019-06-26T11:19:09.431Z,10.50
2019-06-26T11:21:40.268Z,13.00
2019-06-26T11:24:09.961Z,13.13
2019-06-26T11:26:39.675Z,9.70
2019-06-26T11:29:09.302Z,12.33
2019-06-26T11:31:38.998Z,8.80
2019-06-26T11:34:09.067Z,13.97
2019-06-26T11:36:38.708Z,13.83
2019-06-26T11:39:08.739Z,8.33
2019-06-26T11:41:38.524Z,11.07
2019-06-26T11:44:08.368Z,10.17
2019-06-26T11:46:38.016Z,11.67
2019-06-26T11:49:07.642Z,8.40
2019-06-26T11:51:37.356Z,9.50
2019-06-26T11:54:07.120Z,14.03
2019-06-26T11:56:37.040Z,12.50
2019-06-26T11:59:06.758Z,12.10
2019-06-26T12:01:36.684Z,9.77
2019-06-26T12:04:06.578Z,8.93
2019-06-26T12:06:36.206Z,10.00
2019-06-26T12:09:07.794Z,10.50
2019-06-26T12:11:37.642Z,13.53
2019-06-26T12:14:07.619Z,11.13
2019-06-26T12:16:37.239Z,12.50
2019-06-26T12:19:06.882Z,9.80
2019-06-26T12:21:37.187Z,8.80
2019-06-26T12:24:07.087Z,10.13
2019-06-26T12:26:37.127Z,9.67
2019-06-26T12:29:06.978Z,13.57
2019-06-26T12:31:36.862Z,9.27
2019-06-26T12:34:06.720Z,11.00
2019-06-26T12:36:36.414Z,9.63
2019-06-26T12:39:07.052Z,12.33
2019-06-26T12:41:36.670Z,11.10
2019-06-26T12:44:06.407Z,10.87
2019-06-26T12:46:36.149Z,10.73
2019-06-26T12:49:05.767Z,9.60
2019-06-26T12:51:35.695Z,13.67
2019-06-26T12:54:05.431Z,11.73
2019-06-26T12:56:35.050Z,9.17
2019-06-26T12:59:04.688Z,13.43
2019-06-26T13:01:34.432Z,15.10
2019-06-26T13:04:04.173Z,14.17
2019-06-26T13:06:33.853Z,11.60
2019-06-26T13:09:04.006Z,13.87
2019-06-26T13:11:33.789Z,11.53
2019-06-26T13:14:03.439Z,13.33
2019-06-26T13:16:33.325Z,11.73
2019-06-26T13:19:02.955Z,11.33
2019-06-26T13:21:32.697Z,11.17
2019-06-26T13:24:02.399Z,12.30
2019-06-26T13:26:32.296Z,10.90
2019-06-26T13:29:02.422Z,11.83
2019-06-26T13:31:32.407Z,12.97
2019-06-26T13:34:02.314Z,11.17
2019-06-26T13:36:31.937Z,11.83
2019-06-26T13:39:01.568Z,15.33
2019-06-26T13:41:32.912Z,13.00
2019-06-26T13:44:02.589Z,13.77
2019-06-26T13:46:32.218Z,15.43
2019-06-26T13:49:02.098Z,13.57
2019-06-26T13:51:32.117Z,11.13
2019-06-26T13:54:01.747Z,11.17
2019-06-26T13:56:31.383Z,13.60
2019-06-26T13:59:01.127Z,13.33
2019-06-26T14:01:31.840Z,16.60
2019-06-26T14:04:01.478Z,13.57
2019-06-26T14:06:31.197Z,15.40
2019-06-26T14:09:00.857Z,13.40
2019-06-26T14:11:32.161Z,14.47
2019-06-26T14:14:01.805Z,14.73
2019-06-26T14:16:31.504Z,11.57
2019-06-26T14:19:01.183Z,11.20
2019-06-26T14:21:31.047Z,13.30
2019-06-26T14:24:01.239Z,15.53
2019-06-26T14:26:30.875Z,12.77
2019-06-26T14:29:00.610Z,11.57
2019-06-26T14:31:30.513Z,12.07
2019-06-26T14:34:00.138Z,13.10
2019-06-26T14:36:29.763Z,11.40
2019-06-26T14:38:59.436Z,13.97
2019-06-26T14:41:29.390Z,12.37
2019-06-26T14:43:59.099Z,12.73
2019-06-26T14:46:28.783Z,12.37
2019-06-26T14:48:58.626Z,11.47
2019-06-26T14:51:43.484Z,12.00
2019-06-26T14:53:59.698Z,13.23
2019-06-26T14:56:29.371Z,9.97
2019-06-26T14:58:58.991Z,14.23
2019-06-26T15:01:28.701Z,11.33
2019-06-26T15:03:58.343Z,11.70
2019-06-26T15:06:28.207Z,9.43
2019-06-26T15:08:58.124Z,9.70
2019-06-26T15:11:27.756Z,13.20
2019-06-26T15:13:57.411Z,10.93
2019-06-26T15:16:30.393Z,12.40
2019-06-26T15:18:59.717Z,9.53
2019-06-26T15:21:29.426Z,11.90
2019-06-26T15:23:59.068Z,11.67
2019-06-26T15:26:29.748Z,11.30
2019-06-26T15:28:59.378Z,11.47
2019-06-26T15:31:29.011Z,9.70
2019-06-26T15:33:58.750Z,9.20
2019-06-26T15:36:28.363Z,9.67
2019-06-26T15:38:59.198Z,7.87
2019-06-26T15:41:29.226Z,8.60
2019-06-26T15:43:59.367Z,9.53
2019-06-26T15:46:29.144Z,11.97
2019-06-26T15:48:58.779Z,9.50
2019-06-26T15:51:28.417Z,11.90
2019-06-26T15:54:00.053Z,13.87
2019-06-26T15:56:29.393Z,10.03
2019-06-26T15:58:59.119Z,9.33
2019-06-26T16:01:28.824Z,9.73
2019-06-26T16:03:58.859Z,12.53
2019-06-26T16:06:28.941Z,9.00
2019-06-26T16:08:58.652Z,10.53
2019-06-26T16:11:28.591Z,10.20
2019-06-26T16:13:59.124Z,10.57
2019-06-26T16:16:29.251Z,9.13
2019-06-26T16:19:03.878Z,8.57
2019-06-26T16:21:33.503Z,9.97
2019-06-26T16:24:03.140Z,12.37
2019-06-26T16:26:32.863Z,8.00
2019-06-26T16:29:02.504Z,9.50
2019-06-26T16:31:32.247Z,9.00
2019-06-26T16:34:01.947Z,9.50
2019-06-26T16:36:31.658Z,7.37
2019-06-26T16:39:01.372Z,11.10
2019-06-26T16:41:32.895Z,9.93
2019-06-26T16:44:03.656Z,5.67
2019-06-26T16:46:33.272Z,7.43
2019-06-26T16:49:03.227Z,9.10
2019-06-26T16:51:32.863Z,7.03
2019-06-26T16:54:02.968Z,6.93
2019-06-26T16:56:32.592Z,8.37
2019-06-26T16:59:02.557Z,6.23
2019-06-26T17:01:33.245Z,7.17
2019-06-26T17:04:02.947Z,7.80
2019-06-26T17:06:32.599Z,8.27
2019-06-26T17:09:02.334Z,9.60
2019-06-26T17:11:33.612Z,8.40
2019-06-26T17:14:03.299Z,7.50
2019-06-26T17:16:33.068Z,9.40
2019-06-26T17:19:02.748Z,9.23
2019-06-26T17:21:32.746Z,9.30
2019-06-26T17:24:02.495Z,10.10
2019-06-26T17:26:32.147Z,9.90
2019-06-26T17:29:01.780Z,10.67
2019-06-26T17:31:31.416Z,8.03
2019-06-26T17:34:01.123Z,8.20
2019-06-26T17:36:30.751Z,9.17
2019-06-26T17:39:00.451Z,10.60
2019-06-26T17:41:30.080Z,8.50
2019-06-26T17:44:00.066Z,9.33
2019-06-26T17:46:29.704Z,8.93
2019-06-26T17:48:59.930Z,9.63
2019-06-26T17:51:29.847Z,9.20
2019-06-26T17:54:00.067Z,9.57
2019-06-26T17:56:30.087Z,10.73
2019-06-26T17:58:59.808Z,7.63
2019-06-26T18:01:29.559Z,10.27
2019-06-26T18:03:59.180Z,8.53
2019-06-26T18:06:28.883Z,11.50
2019-06-26T18:08:58.915Z,8.23
2019-06-26T18:11:28.868Z,9.43
2019-06-26T18:13:58.783Z,11.43
2019-06-26T18:16:28.831Z,13.50
2019-06-26T18:18:58.489Z,10.60
2019-06-26T18:21:28.431Z,10.27
2019-06-26T18:23:58.179Z,8.80
2019-06-26T18:26:27.835Z,11.07
2019-06-26T18:28:57.450Z,8.63
2019-06-26T18:31:30.481Z,9.73
2019-06-26T18:33:58.525Z,10.07
2019-06-26T18:36:28.188Z,10.57
2019-06-26T18:38:57.807Z,7.37
2019-06-26T18:41:27.447Z,7.37
2019-06-26T18:43:57.087Z,10.30
2019-06-26T18:46:26.707Z,7.07
2019-06-26T18:48:56.410Z,7.50
2019-06-26T18:51:26.104Z,6.33
2019-06-26T18:53:56.072Z,3.80
2019-06-26T18:56:25.692Z,6.57
2019-06-26T18:58:55.444Z,6.53
2019-06-26T19:01:25.073Z,6.40
2019-06-26T19:03:54.871Z,6.67
2019-06-26T19:06:24.563Z,5.80
2019-06-26T19:08:54.251Z,6.30
2019-06-26T19:11:23.877Z,6.03
2019-06-26T19:13:53.508Z,6.10
2019-06-26T19:16:23.288Z,9.07
2019-06-26T19:18:52.973Z,7.83
2019-06-26T19:21:22.636Z,5.17
2019-06-26T19:23:52.364Z,8.20
2019-06-26T19:26:22.754Z,5.20
2019-06-26T19:28:52.939Z,6.83
2019-06-26T19:31:22.651Z,7.10
2019-06-26T19:33:52.380Z,8.30
2019-06-26T19:36:25.065Z,9.47
2019-06-26T19:38:53.490Z,8.10
2019-06-26T19:41:23.388Z,9.57
2019-06-26T19:43:53.027Z,6.90
2019-06-26T19:46:22.919Z,11.20
2019-06-26T19:48:52.951Z,7.53
2019-06-26T19:51:22.576Z,8.30
2019-06-26T19:53:52.215Z,6.37
2019-06-26T19:56:22.399Z,6.23
2019-06-26T19:58:52.154Z,9.17
2019-06-26T20:01:21.777Z,9.80
2019-06-26T20:03:51.411Z,7.93
2019-06-26T20:06:21.035Z,8.33
2019-06-26T20:08:56.198Z,6.33
2019-06-26T20:11:22.075Z,9.33
2019-06-26T20:13:52.213Z,7.00
2019-06-26T20:16:22.314Z,5.70
2019-06-26T20:18:51.953Z,10.40
2019-06-26T20:21:21.627Z,6.43
2019-06-26T20:23:51.499Z,8.93
2019-06-26T20:26:21.119Z,8.83
2019-06-26T20:28:50.987Z,7.33
2019-06-26T20:31:21.816Z,7.77
2019-06-26T20:33:51.452Z,8.00
2019-06-26T20:36:21.175Z,8.47
2019-06-26T20:38:51.091Z,8.73
2019-06-26T20:41:20.735Z,6.40
2019-06-26T20:43:50.540Z,10.90
2019-06-26T20:46:20.151Z,6.43
2019-06-26T20:48:49.798Z,7.87
2019-06-26T20:51:20.847Z,8.40
2019-06-26T20:53:50.823Z,6.00
2019-06-26T20:56:20.538Z,8.77
2019-06-26T20:58:50.294Z,6.27
2019-06-26T21:01:19.949Z,7.83
2019-06-26T21:03:49.605Z,8.87
2019-06-26T21:06:19.584Z,10.03
2019-06-26T21:08:49.231Z,8.47
2019-06-26T21:11:19.152Z,7.73
2019-06-26T21:13:49.015Z,7.83
2019-06-26T21:16:18.983Z,12.33
2019-06-26T21:18:48.700Z,10.27
2019-06-26T21:21:18.756Z,7.87
2019-06-26T21:23:48.464Z,7.93
2019-06-26T21:26:18.365Z,8.57
2019-06-26T21:28:49.059Z,9.37
2019-06-26T21:31:19.199Z,12.27
2019-06-26T21:33:48.835Z,9.70
2019-06-26T21:36:18.748Z,9.47
2019-06-26T21:38:48.471Z,9.23
2019-06-26T21:41:18.135Z,7.27
2019-06-26T21:43:48.084Z,7.50
2019-06-26T21:46:17.706Z,6.43
2019-06-26T21:48:48.028Z,5.92
2019-06-26T21:51:17.657Z,7.07
2019-06-26T21:53:48.073Z,6.75
2019-06-26T21:56:35.596Z,14.07
2019-06-26T21:59:23.638Z,9.80
2019-06-26T22:02:11.447Z,8.33
2019-06-26T22:04:54.827Z,5.97
2019-06-26T22:07:29.018Z,9.77
2019-06-26T22:10:12.594Z,9.57
2019-06-26T22:12:42.983Z,12.10
2019-06-26T22:15:12.881Z,9.07
2019-06-26T22:17:42.780Z,9.90
2019-06-26T22:20:13.101Z,5.57
2019-06-26T22:22:43.937Z,7.70
2019-06-26T22:25:13.820Z,6.70
2019-06-26T22:27:44.551Z,4.87
2019-06-26T22:30:14.846Z,9.70
2019-06-26T22:32:44.547Z,6.93
2019-06-26T22:35:14.436Z,9.33
2019-06-26T22:37:44.063Z,7.47
2019-06-26T22:40:13.839Z,9.50
2019-06-26T22:42:43.478Z,7.00
2019-06-26T22:45:13.765Z,7.73
2019-06-26T22:47:43.395Z,7.37
2019-06-26T22:50:13.596Z,7.93
2019-06-26T22:52:43.485Z,9.37
2019-06-26T22:55:13.421Z,11.10
2019-06-26T22:57:43.116Z,12.40
2019-06-26T23:00:15.228Z,7.77
2019-06-26T23:02:45.055Z,9.93
2019-06-26T23:05:14.983Z,8.80
2019-06-26T23:07:44.619Z,9.97
2019-06-26T23:10:14.919Z,8.07
2019-06-26T23:12:44.650Z,11.20
2019-06-26T23:15:15.055Z,7.20
2019-06-26T23:17:44.777Z,6.13
2019-06-26T23:20:14.680Z,7.73
2019-06-26T23:22:44.425Z,12.37
2019-06-26T23:25:14.590Z,8.03
2019-06-26T23:27:44.567Z,11.47
2019-06-26T23:30:21.473Z,8.17
2019-06-26T23:32:51.332Z,10.47
2019-06-26T23:35:20.967Z,7.87
2019-06-26T23:37:50.917Z,9.83
2019-06-26T23:40:21.595Z,10.33
2019-06-26T23:42:51.233Z,9.93
2019-06-26T23:45:20.931Z,8.90
2019-06-26T23:47:50.629Z,9.17
2019-06-26T23:50:20.508Z,7.17
2019-06-26T23:52:50.289Z,9.73
2019-06-26T23:55:20.008Z,12.90
2019-06-26T23:57:58.900Z,9.10
